Time;durP1;ratioP1;P1;durP2;ratioP2;P2;SDS_P1;SDS_P2;PMS_P1;PMS_P2;Temp;Humidity;BMP_temperature;BMP_pressure;BME280_temperature;BME280_humidity;BME280_pressure;Samples;Min_cycle;Max_cycle;Signal;HPM_P1;HPM_P2
2021/07/02 00:01:14;;;;;;;3.80;3.10;;;14.50;99.90;;;;;;5010196;28;20106;-71
2021/07/02 00:03:40;;;;;;;6.07;2.88;;;14.60;99.90;;;;;;5010235;28;20172;-71
2021/07/02 00:06:06;;;;;;;3.78;2.85;;;14.60;99.90;;;;;;5009612;28;20553;-72
2021/07/02 00:08:32;;;;;;;5.25;3.53;;;14.60;99.90;;;;;;5010057;28;20094;-72
2021/07/02 00:10:58;;;;;;;3.42;2.95;;;14.60;99.90;;;;;;4992824;28;20086;-72
2021/07/02 00:13:23;;;;;;;3.67;3.03;;;14.60;99.90;;;;;;5020645;28;20082;-72
2021/07/02 00:15:49;;;;;;;4.38;3.13;;;14.60;99.90;;;;;;5029505;28;20101;-72
2021/07/02 00:18:15;;;;;;;5.72;3.47;;;14.60;99.90;;;;;;5030638;28;20086;-72
2021/07/02 00:20:40;;;;;;;4.82;3.72;;;14.50;99.90;;;;;;5030229;28;20216;-72
2021/07/02 00:23:06;;;;;;;4.05;3.20;;;14.50;99.90;;;;;;5030504;28;20097;-72
2021/07/02 00:25:32;;;;;;;3.53;3.08;;;14.50;99.90;;;;;;5029556;28;20072;-72
2021/07/02 00:27:58;;;;;;;5.00;3.10;;;14.50;99.90;;;;;;5030381;28;20153;-72
2021/07/02 00:30:23;;;;;;;4.03;3.05;;;14.60;99.90;;;;;;5029625;28;20153;-72
2021/07/02 00:32:50;;;;;;;4.25;3.22;;;14.50;99.90;;;;;;5029936;28;20116;-71
2021/07/02 00:35:15;;;;;;;6.93;3.53;;;14.50;99.90;;;;;;5012102;28;20082;-72
2021/07/02 00:37:41;;;;;;;3.47;2.72;;;14.50;99.90;;;;;;5029825;28;20550;-72
2021/07/02 00:40:07;;;;;;;4.38;3.28;;;14.40;99.90;;;;;;5011899;28;20146;-73
2021/07/02 00:42:33;;;;;;;5.43;2.80;;;14.50;99.90;;;;;;5029772;28;20648;-72
2021/07/02 00:44:59;;;;;;;6.35;3.10;;;14.50;99.90;;;;;;5029924;28;20096;-72
2021/07/02 00:47:24;;;;;;;6.05;3.10;;;14.50;99.90;;;;;;5028802;28;20530;-72
2021/07/02 00:49:50;;;;;;;4.90;3.13;;;14.50;99.90;;;;;;5012000;28;20453;-72
2021/07/02 00:52:16;;;;;;;3.88;3.15;;;14.50;99.90;;;;;;5026609;28;20097;-72
2021/07/02 00:54:46;;;;;;;3.83;3.25;;;14.50;99.90;;;;;;5029430;28;20189;-71
2021/07/02 00:57:12;;;;;;;3.58;2.80;;;14.50;99.90;;;;;;5028441;28;20070;-72
2021/07/02 00:59:41;;;;;;;4.30;3.15;;;14.50;99.90;;;;;;5029195;28;20535;-72
2021/07/02 01:02:07;;;;;;;4.03;2.85;;;14.50;99.90;;;;;;5028222;28;20097;-72
2021/07/02 01:04:32;;;;;;;4.38;2.85;;;14.50;99.90;;;;;;5010645;28;20084;-72
2021/07/02 01:06:59;;;;;;;3.90;2.92;;;14.50;99.90;;;;;;5009873;28;20124;-72
2021/07/02 01:09:25;;;;;;;4.50;2.92;;;14.50;99.90;;;;;;5028613;28;20452;-72
2021/07/02 01:11:51;;;;;;;3.85;2.55;;;14.50;99.90;;;;;;5028127;28;20616;-72
2021/07/02 01:14:17;;;;;;;4.30;3.15;;;14.50;99.90;;;;;;5028585;28;20102;-72
2021/07/02 01:16:43;;;;;;;5.25;3.03;;;14.50;99.90;;;;;;5010689;28;20135;-72
2021/07/02 01:19:08;;;;;;;5.45;3.30;;;14.50;99.90;;;;;;5029032;28;20074;-72
2021/07/02 01:21:34;;;;;;;5.13;3.28;;;14.40;99.90;;;;;;5001119;28;20749;-72
2021/07/02 01:24:00;;;;;;;4.00;2.95;;;14.50;99.90;;;;;;4990760;28;20460;-72
2021/07/02 01:26:26;;;;;;;3.15;2.45;;;14.50;99.90;;;;;;5008040;28;20073;-72
2021/07/02 01:28:52;;;;;;;3.75;2.47;;;14.50;99.90;;;;;;5009290;28;20078;-72
2021/07/02 01:31:18;;;;;;;7.50;3.58;;;14.50;99.90;;;;;;5008519;28;20094;-72
2021/07/02 01:33:43;;;;;;;5.35;3.28;;;14.50;99.90;;;;;;5009536;28;20074;-72
2021/07/02 01:36:15;;;;;;;4.50;2.80;;;14.50;99.90;;;;;;5023422;28;20085;-72
2021/07/02 01:38:41;;;;;;;4.80;2.97;;;14.50;99.90;;;;;;5026950;28;20573;-72
2021/07/02 01:41:07;;;;;;;3.50;2.85;;;14.50;99.90;;;;;;5024698;28;20538;-72
2021/07/02 01:43:32;;;;;;;3.35;3.00;;;14.60;99.90;;;;;;5026096;28;20082;-72
2021/07/02 01:45:58;;;;;;;3.80;2.97;;;14.50;99.90;;;;;;5023720;28;20074;-72
2021/07/02 01:48:24;;;;;;;5.63;3.10;;;14.50;99.90;;;;;;5025582;28;20248;-72
2021/07/02 01:50:50;;;;;;;4.00;2.85;;;14.40;99.90;;;;;;5018130;28;20078;-72
2021/07/02 01:53:16;;;;;;;3.78;3.00;;;14.50;99.90;;;;;;5024550;28;20567;-72
2021/07/02 01:55:41;;;;;;;4.32;3.00;;;14.40;99.90;;;;;;5025495;28;20085;-72
2021/07/02 01:58:07;;;;;;;5.53;3.40;;;14.40;99.90;;;;;;5024215;28;20074;-72
2021/07/02 02:00:33;;;;;;;4.95;3.50;;;14.40;99.90;;;;;;5020203;28;20101;-72
2021/07/02 02:02:58;;;;;;;3.33;3.00;;;14.30;99.90;;;;;;5024823;28;20187;-72
2021/07/02 02:05:24;;;;;;;4.50;3.08;;;14.40;99.90;;;;;;5022920;28;20081;-72
2021/07/02 02:07:50;;;;;;;4.60;2.80;;;14.40;99.90;;;;;;5023611;28;20125;-72
2021/07/02 02:10:16;;;;;;;3.78;3.13;;;14.40;99.90;;;;;;5026881;28;20105;-72
2021/07/02 02:12:41;;;;;;;4.47;3.13;;;14.40;99.90;;;;;;5027789;28;20125;-72
2021/07/02 02:15:07;;;;;;;4.72;3.10;;;14.40;99.90;;;;;;5023143;28;20357;-72
2021/07/02 02:17:34;;;;;;;6.40;3.38;;;14.40;99.90;;;;;;5018324;28;20067;-72
2021/07/02 02:19:59;;;;;;;3.60;2.67;;;14.40;99.90;;;;;;5025399;28;20417;-72
2021/07/02 02:22:25;;;;;;;3.63;2.83;;;14.40;99.90;;;;;;5010454;28;20094;-72
2021/07/02 02:24:51;;;;;;;5.50;3.38;;;14.40;99.90;;;;;;5028513;28;20085;-72
2021/07/02 02:27:16;;;;;;;4.00;3.10;;;14.40;99.90;;;;;;5027893;28;20070;-72
2021/07/02 02:29:42;;;;;;;4.32;3.10;;;14.40;99.90;;;;;;5028771;28;20062;-72
2021/07/02 02:32:08;;;;;;;3.67;2.97;;;14.30;99.90;;;;;;5028052;28;20181;-72
2021/07/02 02:34:34;;;;;;;3.78;2.78;;;14.40;99.90;;;;;;5028234;28;20149;-72
2021/07/02 02:37:00;;;;;;;4.30;3.15;;;14.40;99.90;;;;;;5009567;28;20795;-72
2021/07/02 02:39:26;;;;;;;4.28;3.20;;;14.30;99.90;;;;;;5028073;28;20085;-72
2021/07/02 02:41:51;;;;;;;4.28;3.10;;;14.30;99.90;;;;;;5010256;28;20102;-72
2021/07/02 02:44:17;;;;;;;4.88;3.63;;;14.30;99.90;;;;;;5028357;28;20783;-72
2021/07/02 02:46:43;;;;;;;5.18;2.90;;;14.40;99.90;;;;;;5027357;28;20461;-72
2021/07/02 02:49:08;;;;;;;6.65;3.75;;;14.30;99.90;;;;;;5028199;28;20074;-72
2021/07/02 02:51:34;;;;;;;4.30;3.63;;;14.30;99.90;;;;;;5023844;28;20137;-72
2021/07/02 02:53:59;;;;;;;4.22;2.85;;;14.30;99.90;;;;;;5027933;28;20070;-72
2021/07/02 02:56:25;;;;;;;4.55;3.30;;;14.30;99.90;;;;;;5027833;28;20538;-72
2021/07/02 02:58:50;;;;;;;6.35;3.20;;;14.30;99.90;;;;;;5027910;28;20074;-72
2021/07/02 03:01:16;;;;;;;2.42;1.98;;;14.30;99.90;;;;;;5027748;28;20132;-72
2021/07/02 03:03:43;;;;;;;3.45;2.83;;;14.30;99.90;;;;;;5027737;28;20595;-72
2021/07/02 03:06:09;;;;;;;5.03;3.33;;;14.30;99.90;;;;;;5027529;28;20070;-72
2021/07/02 03:08:34;;;;;;;4.28;2.95;;;14.20;99.90;;;;;;5027773;28;20808;-72
2021/07/02 03:11:00;;;;;;;8.23;3.53;;;14.20;99.90;;;;;;5027594;28;20109;-72
2021/07/02 03:13:25;;;;;;;4.53;3.30;;;14.20;99.90;;;;;;5027632;28;20151;-72
2021/07/02 03:15:51;;;;;;;3.80;3.20;;;14.20;99.90;;;;;;5009167;28;20081;-72
2021/07/02 03:18:17;;;;;;;4.05;3.40;;;14.20;99.90;;;;;;5027480;28;20085;-72
2021/07/02 03:20:44;;;;;;;5.00;3.47;;;14.20;99.90;;;;;;5010097;28;20101;-72
2021/07/02 03:23:10;;;;;;;4.03;2.95;;;14.20;99.90;;;;;;5008063;28;20637;-72
2021/07/02 03:25:35;;;;;;;4.80;3.33;;;14.20;99.90;;;;;;5027234;28;20108;-72
2021/07/02 03:28:01;;;;;;;5.30;3.28;;;14.20;99.90;;;;;;5010176;28;20070;-72
2021/07/02 03:30:26;;;;;;;4.20;3.42;;;14.20;99.90;;;;;;5028200;28;20070;-72
2021/07/02 03:32:52;;;;;;;7.15;3.83;;;14.20;99.90;;;;;;5027189;28;20094;-72
2021/07/02 03:35:18;;;;;;;6.03;2.88;;;14.20;99.90;;;;;;5027864;28;20121;-72
2021/07/02 03:37:43;;;;;;;6.70;3.30;;;14.20;99.90;;;;;;5027040;28;20062;-72
2021/07/02 03:40:11;;;;;;;3.97;3.35;;;14.30;99.90;;;;;;5027367;28;20096;-72
2021/07/02 03:42:36;;;;;;;4.82;3.10;;;14.30;99.90;;;;;;5027561;28;20110;-72
2021/07/02 03:45:02;;;;;;;4.75;3.38;;;14.30;99.90;;;;;;5027303;28;20066;-72
2021/07/02 03:47:28;;;;;;;6.05;3.28;;;14.30;99.90;;;;;;5026802;28;20073;-72
2021/07/02 03:49:54;;;;;;;4.57;3.22;;;14.30;99.90;;;;;;5028092;28;20066;-71
2021/07/02 03:52:19;;;;;;;6.50;3.33;;;14.30;99.90;;;;;;5025565;28;20106;-72
2021/07/02 03:54:45;;;;;;;4.55;3.20;;;14.30;99.90;;;;;;5027588;28;20078;-72
2021/07/02 03:57:11;;;;;;;4.10;3.60;;;14.30;99.90;;;;;;5026920;28;20098;-72
2021/07/02 03:59:41;;;;;;;6.07;3.40;;;14.30;99.90;;;;;;5027505;28;20493;-73
2021/07/02 04:02:07;;;;;;;5.70;3.90;;;14.30;99.90;;;;;;5027469;28;20100;-71
2021/07/02 04:04:34;;;;;;;7.05;3.72;;;14.30;99.90;;;;;;5027588;28;20074;-71
2021/07/02 04:07:00;;;;;;;4.00;3.53;;;14.30;99.90;;;;;;5026816;28;20062;-71
2021/07/02 04:09:25;;;;;;;4.30;3.55;;;14.30;99.90;;;;;;5027591;28;20073;-72
2021/07/02 04:11:51;;;;;;;4.30;3.47;;;14.40;99.90;;;;;;5010074;28;20093;-71
2021/07/02 04:14:17;;;;;;;4.90;3.63;;;14.30;99.90;;;;;;5027019;28;20534;-71
2021/07/02 04:16:42;;;;;;;5.60;3.47;;;14.30;99.90;;;;;;5026933;28;20077;-70
2021/07/02 04:19:08;;;;;;;5.32;3.75;;;14.30;99.90;;;;;;5027300;28;20081;-71
2021/07/02 04:21:33;;;;;;;4.70;3.90;;;14.30;99.90;;;;;;5027415;28;20159;-73
2021/07/02 04:23:59;;;;;;;4.97;3.92;;;14.30;99.90;;;;;;5029773;28;20085;-70
2021/07/02 04:26:24;;;;;;;7.57;3.90;;;14.30;99.90;;;;;;5030474;28;20153;-72
2021/07/02 04:28:50;;;;;;;8.43;3.28;;;14.30;99.90;;;;;;5030923;28;20066;-71
2021/07/02 04:31:15;;;;;;;3.60;3.20;;;14.40;99.90;;;;;;5030300;28;20557;-71
2021/07/02 04:33:41;;;;;;;4.72;3.30;;;14.40;99.90;;;;;;5030088;28;20693;-71
2021/07/02 04:36:06;;;;;;;4.40;3.60;;;14.40;99.90;;;;;;5026302;28;20499;-71
2021/07/02 04:38:32;;;;;;;6.72;3.60;;;14.40;99.90;;;;;;5013763;28;20078;-71
2021/07/02 04:40:57;;;;;;;4.93;3.85;;;14.40;99.90;;;;;;5010721;28;20086;-70
2021/07/02 04:43:23;;;;;;;6.20;3.78;;;14.40;99.90;;;;;;5020155;28;20119;-71
2021/07/02 04:45:48;;;;;;;5.53;3.80;;;14.40;99.90;;;;;;5030248;28;20078;-71
2021/07/02 04:48:14;;;;;;;5.13;3.75;;;14.50;99.90;;;;;;5012372;28;20445;-72
2021/07/02 04:50:40;;;;;;;5.30;3.72;;;14.50;99.90;;;;;;5028095;28;21275;-71
2021/07/02 04:53:05;;;;;;;4.68;3.42;;;14.50;99.90;;;;;;5030483;28;20574;-71
2021/07/02 04:55:31;;;;;;;6.45;3.75;;;14.50;99.90;;;;;;5029621;28;20085;-72
2021/07/02 04:57:56;;;;;;;5.97;4.10;;;14.50;99.90;;;;;;5030469;28;20503;-71
2021/07/02 05:00:25;;;;;;;5.70;3.65;;;14.50;99.90;;;;;;5027508;28;20104;-72
2021/07/02 05:02:54;;;;;;;5.65;3.80;;;14.50;99.90;;;;;;5017692;28;20090;-72
2021/07/02 05:05:20;;;;;;;5.07;3.75;;;14.50;99.90;;;;;;4997196;28;20510;-74
2021/07/02 05:07:45;;;;;;;4.70;3.88;;;14.60;99.90;;;;;;5016361;28;20073;-71
2021/07/02 05:10:11;;;;;;;5.35;4.18;;;14.50;99.90;;;;;;5028845;28;20066;-71
2021/07/02 05:12:37;;;;;;;4.85;4.22;;;14.60;99.90;;;;;;5029479;28;20096;-71
2021/07/02 05:15:03;;;;;;;5.18;3.60;;;14.60;99.90;;;;;;5019985;28;20483;-73
2021/07/02 05:17:29;;;;;;;6.90;4.50;;;14.60;99.90;;;;;;5008018;28;20151;-71
2021/07/02 05:19:54;;;;;;;4.65;3.47;;;14.70;99.90;;;;;;5009830;28;20188;-72
2021/07/02 05:22:20;;;;;;;4.63;3.70;;;14.70;99.90;;;;;;5009987;28;20094;-71
2021/07/02 05:24:47;;;;;;;5.32;4.00;;;14.80;99.90;;;;;;5023069;28;20082;-71
2021/07/02 05:27:13;;;;;;;5.28;3.97;;;14.70;99.90;;;;;;5028845;28;20077;-73
2021/07/02 05:29:39;;;;;;;5.18;3.83;;;14.70;99.90;;;;;;5029443;28;20074;-72
2021/07/02 05:32:05;;;;;;;6.72;4.05;;;14.70;99.90;;;;;;5018784;28;20106;-73
2021/07/02 05:34:31;;;;;;;5.30;4.53;;;14.80;99.90;;;;;;5010164;28;20153;-73
2021/07/02 05:36:57;;;;;;;6.20;4.07;;;14.90;99.90;;;;;;5027357;28;20550;-72
2021/07/02 05:39:23;;;;;;;5.78;3.83;;;14.80;99.90;;;;;;5027344;28;20100;-74
2021/07/02 05:41:49;;;;;;;4.40;3.80;;;14.90;99.90;;;;;;5025412;28;20097;-72
2021/07/02 05:44:14;;;;;;;6.10;4.18;;;14.90;99.90;;;;;;5025072;28;20765;-72
2021/07/02 05:46:40;;;;;;;4.55;4.05;;;14.90;99.90;;;;;;5027009;28;21946;-71
2021/07/02 05:49:06;;;;;;;5.28;3.58;;;14.90;99.90;;;;;;5027325;28;20149;-73
2021/07/02 05:51:31;;;;;;;8.15;4.55;;;15.00;99.90;;;;;;5027394;28;20100;-73
2021/07/02 05:53:57;;;;;;;4.95;3.90;;;14.90;99.90;;;;;;5024115;28;20188;-73
2021/07/02 05:56:28;;;;;;;4.80;3.55;;;15.00;99.90;;;;;;5025122;28;20089;-72
2021/07/02 05:58:57;;;;;;;6.40;4.05;;;15.00;99.90;;;;;;5008840;28;20101;-73
2021/07/02 06:01:23;;;;;;;6.32;4.00;;;15.00;99.90;;;;;;5023319;28;20098;-72
2021/07/02 06:03:49;;;;;;;5.75;3.90;;;15.10;99.90;;;;;;5025344;28;20086;-72
2021/07/02 06:06:14;;;;;;;4.72;3.80;;;15.10;99.90;;;;;;5026615;28;20086;-71
2021/07/02 06:08:40;;;;;;;7.03;3.72;;;15.10;99.90;;;;;;5027175;28;20168;-72
2021/07/02 06:11:06;;;;;;;5.60;3.67;;;15.10;99.90;;;;;;5024410;28;20160;-72
2021/07/02 06:13:31;;;;;;;5.32;4.35;;;15.20;99.90;;;;;;5024376;28;20144;-71
2021/07/02 06:15:57;;;;;;;5.82;4.25;;;15.20;99.90;;;;;;5022727;28;20172;-72
2021/07/02 06:18:23;;;;;;;9.43;4.03;;;15.20;99.90;;;;;;5026241;28;20128;-71
2021/07/02 06:20:52;;;;;;;5.88;4.47;;;15.20;99.90;;;;;;5025188;28;20090;-72
2021/07/02 06:23:22;;;;;;;6.05;4.10;;;15.20;99.90;;;;;;5008293;28;20254;-74
2021/07/02 06:25:49;;;;;;;6.00;4.40;;;15.30;99.90;;;;;;5024949;28;20073;-74
2021/07/02 06:28:15;;;;;;;7.50;5.15;;;15.30;99.90;;;;;;5025689;28;20131;-73
2021/07/02 06:30:42;;;;;;;7.72;4.65;;;15.40;99.90;;;;;;5025139;28;20085;-73
2021/07/02 06:33:08;;;;;;;5.30;4.15;;;15.30;99.90;;;;;;5023886;28;20145;-71
2021/07/02 06:35:34;;;;;;;8.25;4.30;;;15.30;99.90;;;;;;5024092;28;20109;-73
2021/07/02 06:38:00;;;;;;;6.95;4.75;;;15.40;99.90;;;;;;5027580;28;20149;-72
2021/07/02 06:40:25;;;;;;;7.20;4.22;;;15.50;99.90;;;;;;5025610;28;20082;-73
2021/07/02 06:42:51;;;;;;;5.85;4.68;;;15.60;99.90;;;;;;5027288;28;20588;-71
2021/07/02 06:45:17;;;;;;;6.47;4.22;;;15.60;99.90;;;;;;5025230;28;20576;-71
2021/07/02 06:47:55;;;;;;;7.88;4.80;;;15.60;99.90;;;;;;5024073;28;20558;-74
2021/07/02 06:50:20;;;;;;;5.30;4.63;;;15.60;99.90;;;;;;5022863;28;20074;-73
2021/07/02 06:52:46;;;;;;;5.63;4.50;;;15.70;99.90;;;;;;5026412;28;20180;-71
2021/07/02 06:55:11;;;;;;;4.97;4.03;;;15.70;99.90;;;;;;5006760;28;20076;-72
2021/07/02 06:57:37;;;;;;;7.13;4.85;;;15.80;99.90;;;;;;5024568;28;20082;-72
2021/07/02 07:00:03;;;;;;;5.50;4.43;;;15.90;99.90;;;;;;5024641;28;20089;-73
2021/07/02 07:02:29;;;;;;;6.32;5.18;;;16.10;99.90;;;;;;5024958;28;20536;-73
2021/07/02 07:04:55;;;;;;;7.90;5.10;;;16.30;99.90;;;;;;5024135;28;20109;-72
2021/07/02 07:07:21;;;;;;;5.75;4.15;;;16.40;99.90;;;;;;5024085;28;20449;-73
2021/07/02 07:09:46;;;;;;;6.38;4.32;;;16.40;99.90;;;;;;5027003;28;20153;-71
2021/07/02 07:12:12;;;;;;;7.03;4.32;;;16.40;99.90;;;;;;5028063;28;20795;-71
2021/07/02 07:14:38;;;;;;;6.75;4.50;;;16.50;99.90;;;;;;5026839;28;20520;-72
2021/07/02 07:17:09;;;;;;;5.40;4.35;;;16.60;99.90;;;;;;5024544;28;20074;-74
2021/07/02 07:19:36;;;;;;;4.88;3.50;;;16.70;99.90;;;;;;5027642;28;20132;-72
2021/07/02 07:22:01;;;;;;;6.30;3.78;;;16.60;99.90;;;;;;5025741;28;20090;-72
2021/07/02 07:24:27;;;;;;;6.72;4.00;;;16.60;99.90;;;;;;5015207;28;20070;-73
2021/07/02 07:26:52;;;;;;;6.30;3.70;;;16.60;99.90;;;;;;5026742;28;20215;-73
2021/07/02 07:29:18;;;;;;;5.20;3.83;;;16.60;99.90;;;;;;5027984;28;20093;-72
2021/07/02 07:31:44;;;;;;;7.22;3.97;;;16.60;99.90;;;;;;5027222;28;20097;-71
2021/07/02 07:34:10;;;;;;;8.05;4.05;;;16.60;99.90;;;;;;5027112;28;20081;-72
2021/07/02 07:36:37;;;;;;;6.07;4.47;;;16.50;99.90;;;;;;5027090;28;20077;-72
2021/07/02 07:39:04;;;;;;;4.03;3.25;;;16.50;99.90;;;;;;5021635;28;20070;-73
2021/07/02 07:41:29;;;;;;;5.85;4.22;;;16.50;99.90;;;;;;5010065;28;20110;-77
2021/07/02 07:43:55;;;;;;;5.38;4.45;;;16.50;99.90;;;;;;5027043;28;21456;-72
2021/07/02 07:46:21;;;;;;;6.68;4.50;;;16.50;99.90;;;;;;5025863;28;20125;-72
2021/07/02 07:48:47;;;;;;;6.13;4.43;;;16.50;99.90;;;;;;5027387;28;20058;-73
2021/07/02 07:51:58;;;;;;;6.53;3.97;;;16.40;99.90;;;;;;5027127;28;20161;-73
2021/07/02 07:54:01;;;;;;;5.45;4.05;;;16.50;99.90;;;;;;5016228;28;20100;-72
2021/07/02 07:56:29;;;;;;;7.68;4.70;;;16.40;99.90;;;;;;5027108;28;20082;-73
2021/07/02 07:58:55;;;;;;;7.50;4.38;;;16.40;99.90;;;;;;5026047;28;20073;-73
2021/07/02 08:01:21;;;;;;;6.13;4.38;;;16.40;99.90;;;;;;5010909;28;20087;-72
2021/07/02 08:03:47;;;;;;;5.40;4.15;;;16.40;99.90;;;;;;5010578;28;20075;-73
2021/07/02 08:06:12;;;;;;;5.53;4.10;;;16.40;99.90;;;;;;5028916;28;20078;-72
2021/07/02 08:08:38;;;;;;;5.78;3.88;;;16.40;99.90;;;;;;5030163;28;21451;-72
2021/07/02 08:11:04;;;;;;;5.78;4.20;;;16.50;99.90;;;;;;5012868;28;20602;-73
2021/07/02 08:13:30;;;;;;;6.57;4.22;;;16.50;99.90;;;;;;5030916;28;20161;-73
2021/07/02 08:15:58;;;;;;;5.50;4.03;;;16.50;99.90;;;;;;5011810;28;20172;-73
2021/07/02 08:18:24;;;;;;;6.25;4.13;;;16.50;99.90;;;;;;5030701;28;20572;-72
2021/07/02 08:20:50;;;;;;;5.45;3.63;;;16.50;99.90;;;;;;5027834;28;20094;-73
2021/07/02 08:23:15;;;;;;;5.22;4.20;;;16.50;99.90;;;;;;5030528;28;20118;-73
2021/07/02 08:25:41;;;;;;;7.25;4.63;;;16.50;99.90;;;;;;5014190;28;20599;-71
2021/07/02 08:30:52;;;;;;;5.22;3.83;;;16.60;99.90;;;;;;5011142;28;20089;-73
2021/07/02 08:33:19;;;;;;;5.53;4.55;;;16.60;99.90;;;;;;4991892;28;20098;-73
2021/07/02 08:35:46;;;;;;;6.43;4.22;;;16.60;99.90;;;;;;5022537;28;20081;-72
2021/07/02 08:38:12;;;;;;;4.93;4.10;;;16.60;99.90;;;;;;5030172;28;20152;-72
2021/07/02 08:40:38;;;;;;;6.75;4.05;;;16.60;99.90;;;;;;5030399;28;20073;-73
2021/07/02 08:43:04;;;;;;;5.25;3.70;;;16.60;99.90;;;;;;5029891;28;20097;-73
2021/07/02 08:45:29;;;;;;;5.25;3.65;;;16.70;99.90;;;;;;5028574;28;20078;-73
2021/07/02 08:47:56;;;;;;;5.53;4.22;;;16.70;99.90;;;;;;5030011;28;20074;-73
2021/07/02 08:50:22;;;;;;;4.82;3.35;;;16.70;99.90;;;;;;5030280;28;20227;-73
2021/07/02 08:52:48;;;;;;;5.70;3.72;;;16.80;99.90;;;;;;5030645;28;20494;-73
2021/07/02 08:55:14;;;;;;;4.90;3.53;;;16.90;99.90;;;;;;5031098;28;20550;-78
2021/07/02 08:57:40;;;;;;;7.18;3.40;;;16.90;99.90;;;;;;5029422;28;20081;-73
2021/07/02 09:00:07;;;;;;;4.53;3.85;;;16.90;99.90;;;;;;5030126;28;20097;-73
2021/07/02 09:02:35;;;;;;;5.40;3.63;;;16.90;99.90;;;;;;5020451;28;20098;-72
2021/07/02 09:05:39;;;;;;;7.00;3.47;;;16.90;99.90;;;;;;5020016;28;20067;-72
2021/07/02 09:08:13;;;;;;;4.75;3.47;;;17.10;99.90;;;;;;5020200;28;20197;-72
2021/07/02 09:10:39;;;;;;;5.05;3.67;;;17.20;99.90;;;;;;5018754;28;20508;-72
2021/07/02 09:13:05;;;;;;;5.65;3.97;;;17.20;99.90;;;;;;5020856;28;20116;-72
2021/07/02 09:15:32;;;;;;;6.28;3.97;;;17.30;99.90;;;;;;5018897;28;20089;-73
2021/07/02 09:18:00;;;;;;;9.32;4.10;;;17.60;99.90;;;;;;5019165;28;20066;-73
2021/07/02 09:20:35;;;;;;;6.38;4.35;;;17.70;99.90;;;;;;5018900;28;20153;-72
2021/07/02 09:23:04;;;;;;;6.15;4.47;;;17.60;99.90;;;;;;5018187;28;20167;-72
2021/07/02 09:25:31;;;;;;;4.93;3.67;;;17.40;99.90;;;;;;5001138;28;20174;-73
2021/07/02 09:28:01;;;;;;;7.18;4.25;;;17.30;99.90;;;;;;5020892;28;20063;-74
2021/07/02 09:30:35;;;;;;;5.93;4.00;;;17.20;99.90;;;;;;5002322;28;20119;-74
2021/07/02 09:33:12;;;;;;;6.35;4.70;;;17.30;99.90;;;;;;5009647;28;20090;-72
2021/07/02 09:35:51;;;;;;;4.82;4.18;;;17.50;99.90;;;;;;5008680;28;20081;-73
2021/07/02 09:38:18;;;;;;;6.95;4.57;;;17.60;99.90;;;;;;5009815;28;20070;-72
2021/07/02 09:40:48;;;;;;;5.82;3.90;;;17.80;99.90;;;;;;5008853;28;20097;-72
2021/07/02 09:43:19;;;;;;;7.63;4.32;;;17.90;99.90;;;;;;5017127;28;20566;-72
2021/07/02 09:45:52;;;;;;;4.93;4.03;;;18.00;99.90;;;;;;5027782;28;20086;-71
2021/07/02 09:48:21;;;;;;;7.13;4.70;;;17.90;99.90;;;;;;5028858;28;20066;-72
2021/07/02 09:50:50;;;;;;;5.80;4.57;;;18.00;99.90;;;;;;5029341;28;20066;-72
2021/07/02 09:53:22;;;;;;;6.38;4.63;;;18.00;99.90;;;;;;5024451;28;20171;-72
2021/07/02 09:55:53;;;;;;;7.75;4.50;;;17.90;99.90;;;;;;5027890;28;20152;-73
2021/07/02 09:58:34;;;;;;;4.75;3.58;;;17.80;99.90;;;;;;5028132;28;20473;-73
2021/07/02 10:01:01;;;;;;;5.82;4.25;;;17.80;99.90;;;;;;5008812;28;20137;-72
2021/07/02 10:03:44;;;;;;;5.55;3.95;;;17.80;99.90;;;;;;5009231;28;20077;-73
2021/07/02 10:06:21;;;;;;;5.90;3.80;;;17.80;99.90;;;;;;5023787;28;20128;-73
2021/07/02 10:08:47;;;;;;;4.53;3.20;;;17.80;99.90;;;;;;5029155;28;20102;-72
2021/07/02 10:11:13;;;;;;;4.35;3.47;;;17.80;99.90;;;;;;5028812;28;20104;-72
2021/07/02 10:13:45;;;;;;;4.63;3.60;;;17.80;99.90;;;;;;5029087;28;20105;-71
2021/07/02 10:16:13;;;;;;;5.38;3.67;;;17.90;99.90;;;;;;5028077;28;20073;-72
2021/07/02 10:18:48;;;;;;;5.70;3.97;;;17.90;99.90;;;;;;5026300;28;20128;-75
2021/07/02 10:21:16;;;;;;;5.10;3.72;;;17.90;99.90;;;;;;5018811;28;20093;-75
2021/07/02 10:23:46;;;;;;;5.30;4.10;;;18.20;99.90;;;;;;5014974;28;20505;-73
2021/07/02 10:26:14;;;;;;;5.85;3.97;;;18.50;99.90;;;;;;5015357;28;20094;-74
2021/07/02 10:28:41;;;;;;;6.72;4.30;;;18.60;99.90;;;;;;5028948;28;20095;-73
2021/07/02 10:31:08;;;;;;;7.53;4.47;;;18.60;99.90;;;;;;5024970;28;20097;-72
2021/07/02 10:33:39;;;;;;;5.10;3.90;;;18.50;99.90;;;;;;5026512;28;20136;-72
2021/07/02 10:36:06;;;;;;;5.72;4.45;;;18.50;99.90;;;;;;5025028;28;20147;-72
2021/07/02 10:38:35;;;;;;;5.70;3.88;;;18.40;99.90;;;;;;5025387;28;20109;-72
2021/07/02 10:41:14;;;;;;;6.38;4.07;;;18.30;99.90;;;;;;5008056;28;20090;-72
2021/07/02 10:44:07;;;;;;;5.15;3.90;;;18.40;99.90;;;;;;5026991;28;20074;-72
2021/07/02 10:46:39;;;;;;;7.00;4.20;;;18.60;99.90;;;;;;5022101;28;20090;-72
2021/07/02 10:49:10;;;;;;;4.32;3.42;;;18.60;99.90;;;;;;5026013;28;20070;-72
2021/07/02 10:51:36;;;;;;;6.97;4.18;;;18.60;99.90;;;;;;5007693;28;20098;-74
2021/07/02 10:54:20;;;;;;;7.45;4.45;;;18.60;99.90;;;;;;5052804;22;20173;-71
2021/07/02 10:56:49;;;;;;;4.95;3.78;;;18.40;99.90;;;;;;5000862;28;20093;-71
2021/07/02 10:59:15;;;;;;;4.25;3.85;;;18.30;99.90;;;;;;4999640;28;20575;-70
2021/07/02 11:02:09;;;;;;;4.72;3.85;;;18.30;99.90;;;;;;5004957;28;20102;-70
2021/07/02 11:04:39;;;;;;;5.38;3.58;;;18.30;99.90;;;;;;5007367;28;20125;-70
2021/07/02 11:07:24;;;;;;;6.50;4.13;;;18.30;99.90;;;;;;5002806;28;20085;-70
2021/07/02 11:09:50;;;;;;;5.18;3.65;;;18.50;99.90;;;;;;5002805;28;20745;-70
2021/07/02 11:12:20;;;;;;;8.98;3.75;;;18.80;99.90;;;;;;5008608;28;20450;-69
2021/07/02 11:14:55;;;;;;;4.57;3.60;;;18.90;99.90;;;;;;5005807;28;20098;-71
2021/07/02 11:17:23;;;;;;;6.60;4.05;;;18.80;99.90;;;;;;4988084;28;20553;-70
2021/07/02 11:20:09;;;;;;;4.22;3.65;;;18.60;99.90;;;;;;5000315;28;20196;-70
2021/07/02 11:22:35;;;;;;;6.93;4.22;;;18.40;99.90;;;;;;4993120;28;20562;-70
2021/07/02 11:25:22;;;;;;;5.15;3.53;;;18.40;99.90;;;;;;4983247;28;20098;-70
2021/07/02 11:27:51;;;;;;;5.40;3.95;;;18.30;99.90;;;;;;4989371;28;20093;-70
2021/07/02 11:30:20;;;;;;;5.03;3.83;;;18.50;99.90;;;;;;5006042;28;20129;-70
2021/07/02 11:32:46;;;;;;;8.45;4.00;;;18.50;99.90;;;;;;5005099;28;20153;-70
2021/07/02 11:35:29;;;;;;;5.63;3.75;;;18.60;99.90;;;;;;5005841;28;20459;-72
2021/07/02 11:38:05;;;;;;;4.80;3.72;;;18.90;99.90;;;;;;5004723;28;20125;-71
2021/07/02 11:40:36;;;;;;;4.18;3.60;;;19.00;99.90;;;;;;5009422;28;20558;-71
2021/07/02 11:43:05;;;;;;;4.18;3.30;;;19.00;99.90;;;;;;4995021;28;20078;-72
2021/07/02 11:45:37;;;;;;;4.40;3.00;;;19.10;99.90;;;;;;5010938;28;20136;-70
2021/07/02 11:48:08;;;;;;;5.25;3.13;;;19.30;99.90;;;;;;5012331;28;20533;-74
2021/07/02 11:50:41;;;;;;;3.78;2.83;;;19.40;99.90;;;;;;5010473;28;20078;-71
2021/07/02 11:53:07;;;;;;;3.92;3.33;;;19.50;99.90;;;;;;5007643;28;20083;-70
2021/07/02 11:55:32;;;;;;;3.80;2.70;;;19.50;99.90;;;;;;5011163;28;20481;-70
2021/07/02 11:58:15;;;;;;;3.65;2.72;;;19.40;99.90;;;;;;5012267;28;20078;-70
2021/07/02 12:00:41;;;;;;;3.92;3.00;;;19.30;99.90;;;;;;5004089;28;20127;-70
2021/07/02 12:03:08;;;;;;;8.52;3.17;;;19.30;99.90;;;;;;5003066;28;20534;-71
2021/07/02 12:05:37;;;;;;;5.65;4.18;;;19.40;99.90;;;;;;5004734;28;20094;-71
2021/07/02 12:08:03;;;;;;;5.10;3.15;;;19.40;99.90;;;;;;5004912;28;20074;-69
2021/07/02 12:10:29;;;;;;;3.80;2.67;;;19.50;99.90;;;;;;5003092;28;20132;-70
2021/07/02 12:13:06;;;;;;;4.22;3.05;;;19.50;99.90;;;;;;5004964;28;20082;-70
2021/07/02 12:15:32;;;;;;;4.00;3.10;;;19.60;99.90;;;;;;5002816;28;20143;-70
2021/07/02 12:18:05;;;;;;;5.90;2.83;;;19.70;99.90;;;;;;5003412;28;20082;-70
2021/07/02 12:20:36;;;;;;;3.83;3.22;;;19.70;99.90;;;;;;5006881;28;20641;-70
2021/07/02 12:23:04;;;;;;;4.93;2.40;;;19.60;99.90;;;;;;5003271;28;20591;-70
2021/07/02 12:25:30;;;;;;;4.50;2.55;;;19.80;99.90;;;;;;4999268;28;20090;-71
2021/07/02 12:27:59;;;;;;;3.38;2.72;;;19.80;99.90;;;;;;4999526;28;20071;-72
2021/07/02 12:31:05;;;;;;;5.95;2.67;;;19.90;99.90;;;;;;5002842;28;20074;-72
2021/07/02 12:33:31;;;;;;;4.32;2.70;;;19.80;99.90;;;;;;5003225;28;20445;-72
2021/07/02 12:36:07;;;;;;;3.00;2.58;;;20.10;99.90;;;;;;5001334;28;20206;-72
2021/07/02 12:38:32;;;;;;;2.83;2.17;;;20.10;99.90;;;;;;5001843;28;20070;-72
2021/07/02 12:40:58;;;;;;;5.65;2.80;;;19.90;99.90;;;;;;5002999;28;20094;-71
2021/07/02 12:43:23;;;;;;;6.30;2.60;;;19.90;99.90;;;;;;5005254;28;20067;-71
2021/07/02 12:45:51;;;;;;;4.03;2.70;;;19.90;99.90;;;;;;4987381;28;20182;-71
2021/07/02 12:48:17;;;;;;;5.50;3.28;;;20.00;99.90;;;;;;4989218;28;20505;-71
2021/07/02 12:50:47;;;;;;;4.60;2.85;;;20.00;99.90;;;;;;5009660;28;20148;-72
2021/07/02 12:56:06;;;;;;;3.65;2.80;;;20.10;99.90;;;;;;4994303;28;20206;-70